createdAt,value
2022-08-17T00:02:25.253Z,31.22
2022-08-17T00:04:55.062Z,31.37
2022-08-17T00:07:22.596Z,31.32
2022-08-17T00:09:49.780Z,31.16
2022-08-17T00:12:51.236Z,31.23
2022-08-17T00:15:05.049Z,31.30
2022-08-17T00:17:32.469Z,31.31
2022-08-17T00:20:02.315Z,31.09
2022-08-17T00:22:35.328Z,30.85
2022-08-17T00:25:05.342Z,30.49
2022-08-17T00:27:33.638Z,31.00
2022-08-17T00:30:00.778Z,31.01
2022-08-17T00:33:22.799Z,30.87
2022-08-17T00:35:17.549Z,31.01
2022-08-17T00:37:44.983Z,31.04
2022-08-17T00:40:13.269Z,31.14
2022-08-17T00:42:40.614Z,31.07
2022-08-17T00:45:09.272Z,31.17
2022-08-17T00:47:36.463Z,31.15
2022-08-17T00:50:04.900Z,31.06
2022-08-17T00:52:36.197Z,30.96
2022-08-17T00:55:03.957Z,30.97
2022-08-17T00:57:32.162Z,30.96
2022-08-17T01:00:03.239Z,30.95
2022-08-17T01:02:40.445Z,30.97
2022-08-17T01:05:10.840Z,30.87
2022-08-17T01:07:38.152Z,30.78
2022-08-17T01:10:06.188Z,30.57
2022-08-17T01:12:34.493Z,30.62
2022-08-17T01:15:01.650Z,30.22
2022-08-17T01:17:29.038Z,30.38
2022-08-17T01:19:56.668Z,30.41
2022-08-17T01:22:24.510Z,30.60
2022-08-17T01:25:02.584Z,30.02
2022-08-17T01:27:30.075Z,30.15
2022-08-17T01:29:58.992Z,30.57
2022-08-17T01:32:26.634Z,30.65
2022-08-17T01:34:54.139Z,30.64
2022-08-17T01:37:21.695Z,30.61
2022-08-17T01:39:50.551Z,30.54
2022-08-17T01:42:31.032Z,30.61
2022-08-17T01:44:59.034Z,30.47
2022-08-17T01:47:26.451Z,30.49
2022-08-17T01:49:56.977Z,30.67
2022-08-17T01:52:24.135Z,30.38
2022-08-17T01:54:51.639Z,30.11
2022-08-17T01:57:18.784Z,30.04
2022-08-17T01:59:45.970Z,30.24
2022-08-17T02:02:13.409Z,30.33
2022-08-17T02:04:58.620Z,30.27
2022-08-17T02:07:26.162Z,30.38
2022-08-17T02:09:54.323Z,30.45
2022-08-17T02:12:39.265Z,30.45
2022-08-17T02:15:12.374Z,30.44
2022-08-17T02:17:40.843Z,30.47
2022-08-17T02:20:09.209Z,30.38
2022-08-17T02:22:36.523Z,30.49
2022-08-17T02:25:04.626Z,30.53
2022-08-17T02:27:32.777Z,30.52
2022-08-17T02:29:59.915Z,30.56
2022-08-17T02:32:28.644Z,30.56
2022-08-17T02:34:56.864Z,30.58
2022-08-17T02:37:24.566Z,30.51
2022-08-17T02:39:52.152Z,30.44
2022-08-17T02:42:19.370Z,30.49
2022-08-17T02:44:46.742Z,30.53
2022-08-17T02:47:14.191Z,30.47
2022-08-17T02:49:46.255Z,30.43
2022-08-17T02:52:43.003Z,30.35
2022-08-17T02:55:30.900Z,30.44
2022-08-17T02:57:58.516Z,30.37
2022-08-17T03:00:28.833Z,30.26
2022-08-17T03:02:56.698Z,30.39
2022-08-17T03:05:24.897Z,30.27
2022-08-17T03:07:52.195Z,30.41
2022-08-17T03:10:19.614Z,30.26
2022-08-17T03:12:47.307Z,30.06
2022-08-17T03:15:15.482Z,30.17
2022-08-17T03:17:42.749Z,30.20
2022-08-17T03:20:10.531Z,30.21
2022-08-17T03:22:38.628Z,30.19
2022-08-17T03:25:10.647Z,29.97
2022-08-17T03:27:41.964Z,29.96
2022-08-17T03:30:10.668Z,29.94
2022-08-17T03:32:39.149Z,30.12
2022-08-17T03:35:06.514Z,30.23
2022-08-17T03:37:33.664Z,30.11
2022-08-17T03:40:01.315Z,30.04
2022-08-17T03:42:32.293Z,29.97
2022-08-17T03:45:00.755Z,30.06
2022-08-17T03:47:46.706Z,30.24
2022-08-17T03:50:33.240Z,29.97
2022-08-17T03:53:19.525Z,30.03
2022-08-17T03:56:05.388Z,29.94
2022-08-17T03:58:32.566Z,30.13
2022-08-17T04:01:00.016Z,30.07
2022-08-17T04:03:27.479Z,30.16
2022-08-17T04:05:54.628Z,30.18
2022-08-17T04:08:21.801Z,29.98
2022-08-17T04:10:49.247Z,30.18
2022-08-17T04:13:16.406Z,30.13
2022-08-17T04:15:52.523Z,30.13
2022-08-17T04:18:19.985Z,29.96
2022-08-17T04:20:47.156Z,30.06
2022-08-17T04:23:15.812Z,29.87
2022-08-17T04:25:45.045Z,29.93
2022-08-17T04:28:16.133Z,30.14
2022-08-17T04:30:45.248Z,30.27
2022-08-17T04:33:14.154Z,30.36
2022-08-17T04:35:42.493Z,30.70
2022-08-17T04:38:12.100Z,31.31
2022-08-17T04:40:57.996Z,31.59
2022-08-17T04:43:26.471Z,31.85
2022-08-17T04:45:56.544Z,32.38
2022-08-17T04:48:35.448Z,32.84
2022-08-17T04:51:09.913Z,33.06
2022-08-17T04:53:38.172Z,33.40
2022-08-17T04:56:05.729Z,33.40
2022-08-17T04:58:32.969Z,32.79
2022-08-17T05:01:00.275Z,33.57
2022-08-17T05:03:27.829Z,33.57
2022-08-17T05:05:54.989Z,33.65
2022-08-17T05:08:22.162Z,33.43
2022-08-17T05:10:50.129Z,33.49
2022-08-17T05:13:18.944Z,34.32
2022-08-17T05:15:47.764Z,34.97
2022-08-17T05:18:16.064Z,34.84
2022-08-17T05:20:43.358Z,34.35
2022-08-17T05:23:12.528Z,34.12
2022-08-17T05:25:40.821Z,32.83
2022-08-17T05:28:08.507Z,32.72
2022-08-17T05:30:37.161Z,32.19
2022-08-17T05:33:06.104Z,32.26
2022-08-17T05:35:34.102Z,32.16
2022-08-17T05:38:01.715Z,31.23
2022-08-17T05:40:32.877Z,31.87
2022-08-17T05:43:04.714Z,32.18
2022-08-17T05:45:55.115Z,32.13
2022-08-17T05:48:19.606Z,32.32
2022-08-17T05:50:46.979Z,32.18
2022-08-17T05:53:26.469Z,32.98
2022-08-17T05:56:01.050Z,32.36
2022-08-17T05:58:31.388Z,33.53
2022-08-17T06:00:58.808Z,32.92
2022-08-17T06:03:26.237Z,32.73
2022-08-17T06:06:08.391Z,33.62
2022-08-17T06:08:45.384Z,33.82
2022-08-17T06:11:37.400Z,34.19
2022-08-17T06:14:07.979Z,34.03
2022-08-17T06:16:36.795Z,34.10
2022-08-17T06:19:11.970Z,34.20
2022-08-17T06:21:41.333Z,33.64
2022-08-17T06:24:16.358Z,33.16
2022-08-17T06:26:45.466Z,33.62
2022-08-17T06:29:18.554Z,33.93
2022-08-17T06:31:46.464Z,34.30
2022-08-17T06:34:13.619Z,34.14
2022-08-17T06:36:59.900Z,34.54
2022-08-17T06:39:27.479Z,34.13
2022-08-17T06:42:00.820Z,34.11
2022-08-17T06:44:43.479Z,34.54
2022-08-17T06:47:28.401Z,34.69
2022-08-17T06:50:05.685Z,33.80
2022-08-17T06:52:45.556Z,34.31
2022-08-17T06:55:19.046Z,34.48
2022-08-17T06:57:47.993Z,33.90
2022-08-17T07:00:18.703Z,34.65
2022-08-17T07:02:55.350Z,34.31
2022-08-17T07:05:25.210Z,34.23
2022-08-17T07:08:03.700Z,34.79
2022-08-17T07:10:32.531Z,35.09
2022-08-17T07:13:12.058Z,34.76
2022-08-17T07:15:42.371Z,34.63
2022-08-17T07:18:09.540Z,35.30
2022-08-17T07:20:37.522Z,34.98
2022-08-17T07:23:17.410Z,35.38
2022-08-17T07:25:44.569Z,35.62
2022-08-17T07:28:13.004Z,35.90
2022-08-17T07:30:46.865Z,35.75
2022-08-17T07:33:17.863Z,36.08
2022-08-17T07:35:45.175Z,35.44
2022-08-17T07:38:25.415Z,35.79
2022-08-17T07:41:03.231Z,35.37
2022-08-17T07:43:39.467Z,34.21
2022-08-17T07:46:34.654Z,33.69
2022-08-17T07:49:07.497Z,34.26
2022-08-17T07:51:44.156Z,33.75
2022-08-17T07:54:24.355Z,34.53
2022-08-17T07:56:52.965Z,35.24
2022-08-17T07:59:23.919Z,35.66
2022-08-17T08:01:57.439Z,35.89
2022-08-17T08:07:16.885Z,35.38
2022-08-17T08:09:45.281Z,35.12
2022-08-17T08:12:21.796Z,35.55
2022-08-17T08:14:57.771Z,35.49
2022-08-17T08:17:26.751Z,34.71
2022-08-17T08:19:54.168Z,35.34
2022-08-17T08:22:22.595Z,35.58
2022-08-17T08:24:53.136Z,34.94
2022-08-17T08:27:25.361Z,35.21
2022-08-17T08:29:55.319Z,34.69
2022-08-17T08:32:42.862Z,34.97
2022-08-17T08:35:13.277Z,34.86
2022-08-17T08:37:50.983Z,35.49
2022-08-17T08:40:23.921Z,35.45
2022-08-17T08:43:00.364Z,36.42
2022-08-17T08:45:38.191Z,36.21
2022-08-17T08:48:53.141Z,35.55
2022-08-17T08:51:28.481Z,36.66
2022-08-17T08:53:58.903Z,36.85
2022-08-17T08:57:05.004Z,36.27
2022-08-17T08:59:57.718Z,35.96
2022-08-17T09:02:34.957Z,35.96
2022-08-17T09:05:21.206Z,36.12
2022-08-17T09:07:48.274Z,36.24
2022-08-17T09:10:15.605Z,36.67
2022-08-17T09:12:42.763Z,36.12
2022-08-17T09:15:13.008Z,36.20
2022-08-17T09:17:47.395Z,36.64
2022-08-17T09:20:48.078Z,36.26
2022-08-17T09:23:37.739Z,36.08
2022-08-17T09:26:18.023Z,36.40
2022-08-17T09:28:47.017Z,36.04
2022-08-17T09:31:19.410Z,35.92
2022-08-17T09:33:48.301Z,35.62
2022-08-17T09:36:21.325Z,35.77
2022-08-17T09:39:08.166Z,35.93
2022-08-17T09:41:38.663Z,36.31
2022-08-17T09:44:35.617Z,35.79
2022-08-17T09:47:08.111Z,35.69
2022-08-17T09:49:42.507Z,35.83
2022-08-17T09:52:11.479Z,36.06
2022-08-17T09:54:42.430Z,35.58
2022-08-17T09:57:31.723Z,36.51
2022-08-17T10:00:17.943Z,36.09
2022-08-17T10:02:53.592Z,36.14
2022-08-17T10:05:27.411Z,37.02
2022-08-17T10:07:57.825Z,36.40
2022-08-17T10:10:25.582Z,37.24
2022-08-17T10:13:05.451Z,36.12
2022-08-17T10:15:52.559Z,36.84
2022-08-17T10:18:24.486Z,36.37
2022-08-17T10:21:25.292Z,36.70
2022-08-17T10:24:22.538Z,37.25
2022-08-17T10:26:56.792Z,36.81
2022-08-17T10:29:28.848Z,37.39
2022-08-17T10:32:04.633Z,37.36
2022-08-17T10:34:38.651Z,36.66
2022-08-17T10:37:26.266Z,36.81
2022-08-17T10:39:57.389Z,37.06
2022-08-17T10:42:30.834Z,36.97
2022-08-17T10:45:05.806Z,36.85
2022-08-17T10:47:55.349Z,36.80
2022-08-17T10:50:44.349Z,37.61
2022-08-17T10:53:27.136Z,37.49
2022-08-17T10:56:14.256Z,37.38
2022-08-17T10:58:55.874Z,38.25
2022-08-17T11:01:22.986Z,37.81
2022-08-17T11:03:53.425Z,38.19
2022-08-17T11:06:21.502Z,38.44
2022-08-17T11:08:51.374Z,38.04
2022-08-17T11:11:37.559Z,38.75
2022-08-17T11:14:21.381Z,38.37
2022-08-17T11:17:07.581Z,38.26
2022-08-17T11:19:43.989Z,36.98
2022-08-17T11:22:23.559Z,37.74
2022-08-17T11:24:51.412Z,36.58
2022-08-17T11:27:26.687Z,37.44
2022-08-17T11:30:02.540Z,36.80
2022-08-17T11:32:31.357Z,37.80
2022-08-17T11:35:11.999Z,37.25
2022-08-17T11:37:59.610Z,37.52
2022-08-17T11:40:28.304Z,37.57
2022-08-17T11:43:00.182Z,37.36
2022-08-17T11:45:33.776Z,37.29
2022-08-17T11:48:28.180Z,37.32
2022-08-17T11:51:17.375Z,37.62
2022-08-17T11:53:45.839Z,37.96
2022-08-17T11:56:31.789Z,36.98
2022-08-17T11:59:00.712Z,37.17
2022-08-17T12:01:28.953Z,37.02
2022-08-17T12:04:16.280Z,38.02
2022-08-17T12:06:50.685Z,37.48
2022-08-17T12:09:19.224Z,37.84
2022-08-17T12:12:12.081Z,37.42
2022-08-17T12:15:08.911Z,36.99
2022-08-17T12:17:41.184Z,37.32
2022-08-17T12:20:12.799Z,37.83
2022-08-17T12:23:01.146Z,38.18
2022-08-17T12:25:40.758Z,39.12
2022-08-17T12:28:26.565Z,38.88
2022-08-17T12:30:54.244Z,38.77
2022-08-17T12:33:25.539Z,38.54
2022-08-17T12:36:03.386Z,38.51
2022-08-17T12:38:34.402Z,38.35
2022-08-17T12:41:22.532Z,38.30
2022-08-17T12:43:56.363Z,38.49
2022-08-17T12:46:23.789Z,38.89
2022-08-17T12:48:58.925Z,38.08
2022-08-17T12:51:29.140Z,38.70
2022-08-17T12:53:56.479Z,38.24
2022-08-17T12:56:23.611Z,38.68
2022-08-17T12:58:54.075Z,39.06
2022-08-17T13:01:21.256Z,39.38
2022-08-17T13:03:49.483Z,39.05
2022-08-17T13:06:28.682Z,38.45
2022-08-17T13:08:55.855Z,39.16
2022-08-17T13:11:24.807Z,38.90
2022-08-17T13:13:54.443Z,38.16
2022-08-17T13:16:29.958Z,39.02
2022-08-17T13:19:06.717Z,38.47
2022-08-17T13:21:34.311Z,38.01
2022-08-17T13:24:07.742Z,38.53
2022-08-17T13:26:39.171Z,38.13
2022-08-17T13:29:07.697Z,38.73
2022-08-17T13:31:46.580Z,38.57
2022-08-17T13:34:23.524Z,38.80
2022-08-17T13:37:14.081Z,39.36
2022-08-17T13:39:42.035Z,39.40
2022-08-17T13:42:27.717Z,38.89
2022-08-17T13:44:55.152Z,38.72
2022-08-17T13:47:22.295Z,38.02
2022-08-17T13:49:49.576Z,38.63
2022-08-17T13:52:35.113Z,38.18
2022-08-17T13:55:07.834Z,38.35
2022-08-17T13:57:35.226Z,38.10
2022-08-17T14:00:35.453Z,38.00
2022-08-17T14:03:03.441Z,38.46
2022-08-17T14:05:30.591Z,37.67
2022-08-17T14:07:59.285Z,38.24
2022-08-17T14:10:27.093Z,37.65
2022-08-17T14:12:54.250Z,38.30
2022-08-17T14:15:22.674Z,38.06
2022-08-17T14:17:50.413Z,38.79
2022-08-17T14:20:19.951Z,38.26
2022-08-17T14:22:49.582Z,38.90
2022-08-17T14:25:19.618Z,38.82
2022-08-17T14:27:52.852Z,38.93
2022-08-17T14:30:22.247Z,38.16
2022-08-17T14:32:51.675Z,39.09
2022-08-17T14:35:19.290Z,38.66
2022-08-17T14:37:47.653Z,38.24
2022-08-17T14:40:15.643Z,38.73
2022-08-17T14:42:43.439Z,39.08
2022-08-17T14:45:30.367Z,38.53
2022-08-17T14:48:01.363Z,38.75
2022-08-17T14:50:28.777Z,39.89
2022-08-17T14:52:58.269Z,39.82
2022-08-17T14:55:26.586Z,38.90
2022-08-17T14:57:53.987Z,39.46
2022-08-17T15:00:21.187Z,38.77
2022-08-17T15:02:50.906Z,38.90
2022-08-17T15:05:18.339Z,38.38
2022-08-17T15:07:45.762Z,38.79
2022-08-17T15:10:13.425Z,39.06
2022-08-17T15:12:41.174Z,39.15
2022-08-17T15:15:12.137Z,38.56
2022-08-17T15:17:44.617Z,38.41
2022-08-17T15:20:15.140Z,38.21
2022-08-17T15:22:42.695Z,38.93
2022-08-17T15:25:10.580Z,38.28
2022-08-17T15:27:38.688Z,38.30
2022-08-17T15:30:07.266Z,38.50
2022-08-17T15:32:35.508Z,38.31
2022-08-17T15:35:05.103Z,39.20
2022-08-17T15:37:32.317Z,38.58
2022-08-17T15:40:02.634Z,38.85
2022-08-17T15:42:30.050Z,38.36
2022-08-17T15:44:57.200Z,38.76
2022-08-17T15:47:24.421Z,38.74
2022-08-17T15:49:55.459Z,38.81
2022-08-17T15:52:25.878Z,37.73
2022-08-17T15:54:54.727Z,39.03
2022-08-17T15:57:23.990Z,38.10
2022-08-17T15:59:55.140Z,38.77
2022-08-17T16:03:13.702Z,38.63
2022-08-17T16:05:22.289Z,38.51
2022-08-17T16:07:52.596Z,38.51
2022-08-17T16:10:21.050Z,38.80
2022-08-17T16:12:49.235Z,37.95
2022-08-17T16:15:16.745Z,37.83
2022-08-17T16:17:46.496Z,38.32
2022-08-17T16:20:20.804Z,38.85
2022-08-17T16:22:49.037Z,38.81
2022-08-17T16:25:18.786Z,39.14
2022-08-17T16:27:46.278Z,38.52
2022-08-17T16:30:17.774Z,38.75
2022-08-17T16:32:45.561Z,38.53
2022-08-17T16:35:14.351Z,38.88
2022-08-17T16:37:45.559Z,39.05
2022-08-17T16:40:13.604Z,38.72
2022-08-17T16:42:41.119Z,38.63
2022-08-17T16:45:08.782Z,38.87
2022-08-17T16:47:36.049Z,38.83
2022-08-17T16:50:04.585Z,38.82
2022-08-17T16:52:33.502Z,39.01
2022-08-17T16:55:01.616Z,38.75
2022-08-17T16:57:29.725Z,38.87
2022-08-17T16:59:57.286Z,38.87
2022-08-17T17:02:34.581Z,38.73
2022-08-17T17:05:11.909Z,38.74
2022-08-17T17:07:51.299Z,38.69
2022-08-17T17:10:21.316Z,38.57
2022-08-17T17:13:03.015Z,38.26
2022-08-17T17:15:39.659Z,38.46
2022-08-17T17:18:07.722Z,38.59
2022-08-17T17:20:38.166Z,38.59
2022-08-17T17:23:05.411Z,38.52
2022-08-17T17:25:52.794Z,38.40
2022-08-17T17:28:24.812Z,38.33
2022-08-17T17:31:11.213Z,38.25
2022-08-17T17:33:40.319Z,38.37
2022-08-17T17:36:27.735Z,38.22
2022-08-17T17:38:59.202Z,38.17
2022-08-17T17:41:29.035Z,38.08
2022-08-17T17:43:59.087Z,38.03
2022-08-17T17:46:33.826Z,37.95
2022-08-17T17:49:01.313Z,37.87
2022-08-17T17:52:09.418Z,37.82
2022-08-17T17:54:39.444Z,37.74
2022-08-17T17:57:09.581Z,37.69
2022-08-17T17:59:44.094Z,37.54
2022-08-17T18:02:11.469Z,37.50
2022-08-17T18:04:52.838Z,37.48
2022-08-17T18:07:23.782Z,37.52
2022-08-17T18:09:54.204Z,37.50
2022-08-17T18:12:28.793Z,37.46
2022-08-17T18:15:01.218Z,37.52
2022-08-17T18:17:29.669Z,37.47
2022-08-17T18:19:57.087Z,37.38
2022-08-17T18:22:24.466Z,37.26
2022-08-17T18:24:56.512Z,37.23
2022-08-17T18:27:34.304Z,36.90
2022-08-17T18:30:09.077Z,36.90
2022-08-17T18:32:36.800Z,36.86
2022-08-17T18:35:09.683Z,36.62
2022-08-17T18:37:37.057Z,36.76
2022-08-17T18:40:16.731Z,36.63
2022-08-17T18:42:57.494Z,36.81
2022-08-17T18:45:42.105Z,36.40
2022-08-17T18:48:24.830Z,36.59
2022-08-17T18:50:53.480Z,36.48
2022-08-17T18:53:26.788Z,36.43
2022-08-17T18:56:15.461Z,36.37
2022-08-17T18:58:43.105Z,36.45
2022-08-17T19:01:18.025Z,36.45
2022-08-17T19:03:45.987Z,36.06
2022-08-17T19:06:28.941Z,36.23
2022-08-17T19:08:56.408Z,36.19
2022-08-17T19:11:30.892Z,36.08
2022-08-17T19:14:11.074Z,36.06
2022-08-17T19:16:52.068Z,35.97
2022-08-17T19:19:30.861Z,35.94
2022-08-17T19:21:59.088Z,36.15
2022-08-17T19:24:27.401Z,35.99
2022-08-17T19:27:06.253Z,35.99
2022-08-17T19:29:38.730Z,35.82
2022-08-17T19:32:09.376Z,35.75
2022-08-17T19:34:37.923Z,35.87
2022-08-17T19:37:23.603Z,35.76
2022-08-17T19:39:55.646Z,35.72
2022-08-17T19:42:32.965Z,35.70
2022-08-17T19:45:00.339Z,35.44
2022-08-17T19:47:53.742Z,35.52
2022-08-17T19:50:38.521Z,35.72
2022-08-17T19:53:13.838Z,35.68
2022-08-17T19:55:47.893Z,35.38
2022-08-17T19:58:34.634Z,35.47
2022-08-17T20:01:02.416Z,35.38
2022-08-17T20:03:32.783Z,35.31
2022-08-17T20:06:12.591Z,35.52
2022-08-17T20:08:41.548Z,35.62
2022-08-17T20:11:09.113Z,35.63
2022-08-17T20:13:43.637Z,35.67
2022-08-17T20:16:11.345Z,35.39
2022-08-17T20:18:38.454Z,35.47
2022-08-17T20:21:31.642Z,35.46
2022-08-17T20:24:05.661Z,35.41
2022-08-17T20:26:57.870Z,35.04
2022-08-17T20:29:46.087Z,35.11
2022-08-17T20:32:15.334Z,35.15
2022-08-17T20:34:42.706Z,35.14
2022-08-17T20:37:10.955Z,35.06
2022-08-17T20:39:43.147Z,34.98
2022-08-17T20:42:22.545Z,34.92
2022-08-17T20:45:02.802Z,34.86
2022-08-17T20:48:00.775Z,34.82
2022-08-17T20:50:35.054Z,34.73
2022-08-17T20:53:03.714Z,34.66
2022-08-17T20:55:34.321Z,34.61
2022-08-17T20:58:17.030Z,34.59
2022-08-17T21:00:56.647Z,34.46
2022-08-17T21:03:24.154Z,34.33
2022-08-17T21:05:59.727Z,34.24
2022-08-17T21:08:31.411Z,34.38
2022-08-17T21:11:00.071Z,34.38
2022-08-17T21:13:40.423Z,34.30
2022-08-17T21:16:10.390Z,34.30
2022-08-17T21:18:40.161Z,34.20
2022-08-17T21:21:14.097Z,34.16
2022-08-17T21:24:02.964Z,34.22
2022-08-17T21:26:32.790Z,34.25
2022-08-17T21:29:31.105Z,34.05
2022-08-17T21:32:03.122Z,34.04
2022-08-17T21:34:33.268Z,33.90
2022-08-17T21:37:18.868Z,33.70
2022-08-17T21:39:51.294Z,33.70
2022-08-17T21:42:22.845Z,33.75
2022-08-17T21:44:50.493Z,33.71
2022-08-17T21:47:25.210Z,33.81
2022-08-17T21:49:53.114Z,33.74
2022-08-17T21:52:21.094Z,33.68
2022-08-17T21:54:49.510Z,33.70
2022-08-17T21:57:21.227Z,33.74
2022-08-17T21:59:52.678Z,33.56
2022-08-17T22:02:21.147Z,33.64
2022-08-17T22:05:01.854Z,33.28
2022-08-17T22:07:39.736Z,33.36
2022-08-17T22:10:08.571Z,33.12
2022-08-17T22:12:35.780Z,33.24
2022-08-17T22:15:06.133Z,33.24
2022-08-17T22:17:35.567Z,33.28
2022-08-17T22:20:14.996Z,33.34
2022-08-17T22:23:04.045Z,33.15
2022-08-17T22:25:32.895Z,33.03
2022-08-17T22:28:01.122Z,33.03
2022-08-17T22:30:28.335Z,33.11
2022-08-17T22:32:55.695Z,33.12
2022-08-17T22:35:42.666Z,33.17
2022-08-17T22:38:19.018Z,33.07
2022-08-17T22:40:56.842Z,33.02
2022-08-17T22:43:26.297Z,32.97
2022-08-17T22:45:54.857Z,32.86
2022-08-17T22:48:23.353Z,32.89
2022-08-17T22:51:12.725Z,32.88
2022-08-17T22:54:07.464Z,32.91
2022-08-17T22:56:53.701Z,32.89
2022-08-17T22:59:44.461Z,32.84
2022-08-17T23:02:17.001Z,32.80
2022-08-17T23:04:45.415Z,32.74
2022-08-17T23:07:12.896Z,32.82
2022-08-17T23:09:42.361Z,32.80
2022-08-17T23:12:11.582Z,32.56
2022-08-17T23:14:40.900Z,32.61
2022-08-17T23:17:08.315Z,32.63
2022-08-17T23:19:35.477Z,32.70
2022-08-17T23:22:04.304Z,32.76
2022-08-17T23:24:33.089Z,32.75
2022-08-17T23:27:00.243Z,32.66
2022-08-17T23:29:29.440Z,32.53
2022-08-17T23:31:57.940Z,32.14
2022-08-17T23:34:25.598Z,31.76
2022-08-17T23:36:53.243Z,31.86
2022-08-17T23:39:27.806Z,31.91
2022-08-17T23:41:56.976Z,31.98
2022-08-17T23:44:24.268Z,31.97
2022-08-17T23:46:51.984Z,32.01
2022-08-17T23:49:19.580Z,31.98
2022-08-17T23:51:46.763Z,32.05
2022-08-17T23:54:30.280Z,31.85
2022-08-17T23:56:57.683Z,31.80
2022-08-17T23:59:25.279Z,31.60
